Andrews AFB, Maryland
Current Conditions -  °F | °C
As of 5:33 AM on Wednesday 22 Oct 2014 (Local Time) from KADW Reporting Station
Moderate Rain Moderate Rain  
Wind Chill: 52°   Ceiling: 800
Heat Index: 52°   Visibility: 9mi
Dew Point: 52°   Wind: 14mph
Humidity: 100%   Direction: 340°NNW
Pressure: 29.86"   Gusts: NA
Location:  38.8°N, 76.87°W
Report Text: KADW 220933Z AUTO 34012KT 9SM RA OVC008 11/11 A2986 RMK AO2 DZB0916E0917 $
Loading
Personal Weather Stations






























Interactive Weather Map
Tropical Storm Tracking
New forecast layout! Learn more

10-Day Weather Forecast

Advertisements
Track Severe Weather on mobile